createdAt,value
2019-04-27T00:02:26.561Z,19.07
2019-04-27T00:04:58.808Z,19.17
2019-04-27T00:07:28.853Z,17.87
2019-04-27T00:09:59.257Z,18.20
2019-04-27T00:12:28.137Z,19.03
2019-04-27T00:14:56.574Z,20.70
2019-04-27T00:17:44.934Z,18.60
2019-04-27T00:20:17.509Z,20.40
2019-04-27T00:22:50.522Z,18.97
2019-04-27T00:25:18.931Z,20.83
2019-04-27T00:27:47.346Z,19.90
2019-04-27T00:30:16.894Z,19.90
2019-04-27T00:32:45.303Z,20.67
2019-04-27T00:35:15.373Z,21.80
2019-04-27T00:38:00.450Z,21.93
2019-04-27T00:40:39.473Z,21.70
2019-04-27T00:43:07.882Z,21.97
2019-04-27T00:45:36.286Z,21.60
2019-04-27T00:48:04.772Z,23.40
2019-04-27T00:50:33.782Z,21.60
2019-04-27T00:53:03.433Z,21.93
2019-04-27T00:55:34.225Z,21.77
2019-04-27T00:58:19.345Z,20.63
2019-04-27T01:00:53.927Z,21.17
2019-04-27T01:03:43.065Z,20.67
2019-04-27T01:06:13.084Z,22.00
2019-04-27T01:08:42.776Z,21.63
2019-04-27T01:11:12.047Z,21.53
2019-04-27T01:13:40.462Z,21.73
2019-04-27T01:16:10.492Z,22.80
2019-04-27T01:18:39.019Z,22.53
2019-04-27T01:21:09.192Z,22.87
2019-04-27T01:23:38.536Z,21.30
2019-04-27T01:26:18.596Z,22.47
2019-04-27T01:28:49.040Z,23.33
2019-04-27T01:31:19.405Z,22.83
2019-04-27T01:33:48.881Z,22.57
2019-04-27T01:36:18.973Z,22.50
2019-04-27T01:38:49.551Z,22.40
2019-04-27T01:41:19.127Z,21.00
2019-04-27T01:43:49.039Z,21.13
2019-04-27T01:46:19.577Z,22.87
2019-04-27T01:48:49.009Z,22.23
2019-04-27T01:51:19.424Z,23.30
2019-04-27T01:53:49.157Z,23.30
2019-04-27T01:56:19.313Z,25.57
2019-04-27T01:58:49.403Z,23.97
2019-04-27T02:01:32.391Z,24.13
2019-04-27T02:04:09.252Z,23.50
2019-04-27T02:06:38.601Z,24.27
2019-04-27T02:09:09.611Z,23.50
2019-04-27T02:11:38.901Z,24.90
2019-04-27T02:14:09.444Z,25.97
2019-04-27T02:16:39.149Z,25.70
2019-04-27T02:19:09.065Z,25.40
2019-04-27T02:21:39.210Z,26.90
2019-04-27T02:24:09.737Z,25.27
2019-04-27T02:26:39.774Z,26.27
2019-04-27T02:29:12.457Z,25.17
2019-04-27T02:31:51.008Z,27.60
2019-04-27T02:34:21.050Z,25.83
2019-04-27T02:36:50.491Z,26.67
2019-04-27T02:39:19.752Z,24.93
2019-04-27T02:41:49.866Z,24.83
2019-04-27T02:44:20.970Z,25.90
2019-04-27T02:46:50.154Z,24.90
2019-04-27T02:49:20.139Z,24.47
2019-04-27T02:51:50.403Z,25.07
2019-04-27T02:54:20.405Z,24.70
2019-04-27T02:56:50.605Z,25.77
2019-04-27T02:59:19.876Z,22.93
2019-04-27T03:01:53.640Z,23.57
2019-04-27T03:04:22.265Z,24.10
2019-04-27T03:06:50.673Z,24.17
2019-04-27T03:09:20.440Z,23.20
2019-04-27T03:11:49.988Z,22.30
2019-04-27T03:14:29.664Z,20.90
2019-04-27T03:17:00.179Z,20.77
2019-04-27T03:19:32.850Z,22.27
2019-04-27T03:22:12.134Z,21.97
2019-04-27T03:24:59.934Z,22.70
2019-04-27T03:27:44.706Z,21.10
2019-04-27T03:30:15.153Z,21.37
2019-04-27T03:32:44.079Z,23.63
2019-04-27T03:35:13.713Z,20.73
2019-04-27T03:37:42.549Z,21.57
2019-04-27T03:40:12.698Z,30.73
2019-04-27T03:42:42.983Z,26.40
2019-04-27T03:45:11.572Z,26.43
2019-04-27T03:47:40.851Z,24.17
2019-04-27T03:50:12.209Z,24.53
2019-04-27T03:52:54.087Z,22.57
2019-04-27T03:55:42.853Z,22.93
2019-04-27T03:58:15.079Z,22.90
2019-04-27T04:00:43.504Z,22.33
2019-04-27T04:03:11.979Z,22.93
2019-04-27T04:05:40.383Z,21.77
2019-04-27T04:08:10.768Z,22.60
2019-04-27T04:10:41.639Z,24.70
2019-04-27T04:13:14.729Z,21.83
2019-04-27T04:16:01.266Z,21.93
2019-04-27T04:18:31.797Z,20.73
2019-04-27T04:21:00.627Z,24.33
2019-04-27T04:23:30.044Z,23.13
2019-04-27T04:25:59.688Z,22.40
2019-04-27T04:28:29.622Z,21.27
2019-04-27T04:31:00.490Z,26.07
2019-04-27T04:33:30.403Z,25.10
2019-04-27T04:35:59.712Z,23.97
2019-04-27T04:38:30.471Z,21.97
2019-04-27T04:41:00.266Z,21.27
2019-04-27T04:43:45.322Z,22.37
2019-04-27T04:46:31.769Z,20.93
2019-04-27T04:49:00.554Z,20.03
2019-04-27T04:51:30.307Z,20.20
2019-04-27T04:53:59.807Z,22.00
2019-04-27T04:56:29.209Z,30.80
2019-04-27T04:58:59.953Z,33.87
2019-04-27T05:01:29.888Z,44.27
2019-04-27T05:03:59.038Z,39.83
2019-04-27T05:06:29.251Z,45.20
2019-04-27T05:08:59.358Z,43.57
2019-04-27T05:11:29.796Z,41.63
2019-04-27T05:13:59.333Z,26.57
2019-04-27T05:16:28.709Z,23.13
2019-04-27T05:18:57.241Z,22.40
2019-04-27T05:21:31.254Z,20.13
2019-04-27T05:24:00.731Z,19.07
2019-04-27T05:26:29.532Z,20.30
2019-04-27T05:28:59.324Z,19.33
2019-04-27T05:31:29.255Z,18.47
2019-04-27T05:33:59.352Z,18.60
2019-04-27T05:36:29.630Z,17.33
2019-04-27T05:38:59.713Z,16.93
2019-04-27T05:41:31.160Z,15.90
2019-04-27T05:44:03.187Z,15.33
2019-04-27T05:46:53.425Z,15.13
2019-04-27T05:49:31.804Z,14.33
2019-04-27T05:52:08.561Z,25.43
2019-04-27T05:54:40.709Z,26.30
2019-04-27T05:57:09.538Z,28.53
2019-04-27T05:59:39.830Z,43.37
2019-04-27T06:02:09.330Z,27.73
2019-04-27T06:04:39.065Z,21.83
2019-04-27T06:07:09.217Z,18.10
2019-04-27T06:09:39.152Z,15.43
2019-04-27T06:12:08.949Z,11.87
2019-04-27T06:14:39.223Z,13.53
2019-04-27T06:17:09.325Z,14.67
2019-04-27T06:19:39.084Z,12.50
2019-04-27T06:22:09.536Z,11.30
2019-04-27T06:24:39.583Z,15.27
2019-04-27T06:27:09.385Z,11.97
2019-04-27T06:29:39.318Z,8.93
2019-04-27T06:32:09.011Z,9.43
2019-04-27T06:34:39.062Z,9.10
2019-04-27T06:37:09.454Z,7.63
2019-04-27T06:39:38.644Z,8.10
2019-04-27T06:42:17.968Z,6.77
2019-04-27T06:44:37.405Z,7.27
2019-04-27T06:47:05.815Z,7.07
2019-04-27T06:49:34.229Z,6.47
2019-04-27T06:52:02.637Z,6.07
2019-04-27T06:54:31.106Z,5.60
2019-04-27T06:56:59.518Z,6.57
2019-04-27T06:59:28.885Z,7.07
2019-04-27T07:02:00.520Z,6.43
2019-04-27T07:04:29.359Z,6.37
2019-04-27T07:06:59.459Z,6.07
2019-04-27T07:09:29.487Z,5.57
2019-04-27T07:11:59.274Z,5.70
2019-04-27T07:14:29.449Z,5.33
2019-04-27T07:16:59.091Z,4.90
2019-04-27T07:19:28.727Z,4.60
2019-04-27T07:21:57.315Z,4.23
2019-04-27T07:24:25.713Z,4.47
2019-04-27T07:26:54.125Z,4.43
2019-04-27T07:29:23.245Z,3.77
2019-04-27T07:31:51.828Z,3.50
2019-04-27T07:34:20.237Z,3.20
2019-04-27T07:36:49.251Z,3.27
2019-04-27T07:39:19.285Z,2.60
2019-04-27T07:41:48.737Z,3.20
2019-04-27T07:44:21.804Z,3.03
2019-04-27T07:47:09.716Z,2.67
2019-04-27T07:49:39.107Z,2.80
2019-04-27T07:52:08.730Z,2.40
2019-04-27T07:54:38.515Z,2.50
2019-04-27T07:57:07.564Z,1.97
2019-04-27T07:59:36.051Z,2.13
2019-04-27T08:02:04.621Z,1.93
2019-04-27T08:04:33.217Z,2.27
2019-04-27T08:07:02.131Z,2.27
2019-04-27T08:09:32.374Z,2.05
2019-04-27T08:12:00.923Z,1.92
2019-04-27T08:14:29.324Z,1.52
2019-04-27T08:16:58.644Z,1.72
2019-04-27T08:19:27.162Z,2.00
2019-04-27T08:21:55.574Z,1.90
2019-04-27T08:24:23.993Z,2.05
2019-04-27T08:26:54.065Z,1.60
2019-04-27T08:29:33.082Z,1.72
2019-04-27T08:32:19.631Z,1.50
2019-04-27T08:34:49.641Z,2.08
2019-04-27T08:37:18.815Z,1.72
2019-04-27T08:39:47.360Z,1.80
2019-04-27T08:42:15.812Z,1.70
2019-04-27T08:44:44.213Z,1.85
2019-04-27T08:47:12.630Z,2.05
2019-04-27T08:49:41.046Z,2.15
2019-04-27T08:52:09.616Z,1.60
2019-04-27T08:54:39.396Z,1.75
2019-04-27T08:59:43.886Z,1.60
2019-04-27T09:02:12.311Z,1.82
2019-04-27T09:04:40.726Z,2.00
2019-04-27T09:07:31.496Z,1.60
2019-04-27T09:09:59.617Z,1.62
2019-04-27T09:12:50.077Z,1.40
2019-04-27T09:15:29.224Z,1.35
2019-04-27T09:17:58.928Z,1.27
2019-04-27T09:20:39.013Z,1.70
2019-04-27T09:23:09.699Z,1.10
2019-04-27T09:25:39.508Z,1.30
2019-04-27T09:28:08.775Z,1.27
2019-04-27T09:30:39.134Z,1.60
2019-04-27T09:33:08.007Z,1.35
2019-04-27T09:35:36.411Z,1.10
2019-04-27T09:38:04.860Z,1.00
2019-04-27T09:40:33.805Z,0.90
2019-04-27T09:43:02.224Z,1.40
2019-04-27T09:45:30.626Z,1.25
2019-04-27T09:47:59.049Z,1.10
2019-04-27T09:50:28.306Z,1.57
2019-04-27T09:52:56.851Z,1.30
2019-04-27T09:55:26.351Z,1.10
2019-04-27T09:57:56.772Z,1.10
2019-04-27T10:00:25.393Z,1.00
2019-04-27T10:02:53.807Z,1.12
2019-04-27T10:05:22.283Z,1.00
2019-04-27T10:07:50.695Z,0.90
2019-04-27T10:10:19.532Z,0.83
2019-04-27T10:12:47.943Z,0.70
2019-04-27T10:15:16.739Z,1.03
2019-04-27T10:17:45.147Z,1.50
2019-04-27T10:20:13.733Z,0.80
2019-04-27T10:22:43.679Z,1.20
2019-04-27T10:25:14.330Z,0.70
2019-04-27T10:27:45.804Z,0.70
2019-04-27T10:30:15.615Z,1.27
2019-04-27T10:32:46.074Z,1.17
2019-04-27T10:35:16.019Z,1.77
2019-04-27T10:37:44.529Z,1.35
2019-04-27T10:40:13.010Z,0.80
2019-04-27T10:42:41.435Z,0.72
2019-04-27T10:45:11.675Z,0.90
2019-04-27T10:47:40.421Z,0.90
2019-04-27T10:50:09.172Z,2.90
2019-04-27T10:52:37.651Z,0.90
2019-04-27T10:55:06.298Z,0.90
2019-04-27T10:57:34.702Z,0.50
2019-04-27T11:00:06.687Z,0.90
2019-04-27T11:02:35.427Z,0.68
2019-04-27T11:05:07.924Z,0.70
2019-04-27T11:07:38.127Z,0.70
2019-04-27T11:10:08.184Z,0.73
2019-04-27T11:12:36.822Z,0.90
2019-04-27T11:15:09.620Z,1.10
2019-04-27T11:17:38.579Z,1.00
2019-04-27T11:20:10.756Z,0.80
2019-04-27T11:22:39.547Z,0.97
2019-04-27T11:25:09.436Z,1.37
2019-04-27T11:27:37.945Z,1.30
2019-04-27T11:30:08.677Z,0.80
2019-04-27T11:32:37.451Z,1.23
2019-04-27T11:35:15.691Z,1.00
2019-04-27T11:37:45.600Z,1.23
2019-04-27T11:40:14.793Z,1.00
2019-04-27T11:42:43.344Z,1.17
2019-04-27T11:45:12.059Z,1.10
2019-04-27T11:47:40.465Z,1.10
2019-04-27T11:50:10.229Z,0.77
2019-04-27T11:52:38.712Z,1.10
2019-04-27T11:55:08.146Z,1.10
2019-04-27T11:57:37.673Z,0.80
2019-04-27T12:00:12.607Z,1.10
2019-04-27T12:02:41.009Z,1.20
2019-04-27T12:05:10.923Z,1.07
2019-04-27T12:07:39.400Z,1.20
2019-04-27T12:10:08.738Z,1.30
2019-04-27T12:12:37.137Z,1.00
2019-04-27T12:15:07.733Z,1.00
2019-04-27T12:17:36.178Z,1.63
2019-04-27T12:20:07.906Z,2.00
2019-04-27T12:22:36.316Z,2.10
2019-04-27T12:25:07.162Z,2.07
2019-04-27T12:27:53.633Z,2.10
2019-04-27T12:30:23.818Z,1.83
2019-04-27T12:32:52.220Z,1.77
2019-04-27T12:35:20.640Z,1.80
2019-04-27T12:37:49.053Z,1.47
2019-04-27T12:40:17.557Z,1.20
2019-04-27T12:42:45.961Z,1.50
2019-04-27T12:45:16.546Z,1.20
2019-04-27T12:47:46.449Z,1.30
2019-04-27T12:50:17.219Z,1.10
2019-04-27T12:52:47.439Z,1.20
2019-04-27T12:55:17.633Z,1.47
2019-04-27T12:57:59.657Z,1.50
2019-04-27T13:00:45.871Z,1.53
2019-04-27T13:03:16.010Z,1.50
2019-04-27T13:05:44.554Z,1.93
2019-04-27T13:08:12.974Z,1.53
2019-04-27T13:10:41.445Z,1.40
2019-04-27T13:13:09.855Z,0.80
2019-04-27T13:15:38.350Z,1.20
2019-04-27T13:18:06.841Z,1.10
2019-04-27T13:20:35.902Z,1.03
2019-04-27T13:23:04.834Z,0.87
2019-04-27T13:25:33.342Z,0.80
2019-04-27T13:28:01.877Z,0.80
2019-04-27T13:30:30.283Z,0.60
2019-04-27T13:32:58.751Z,0.70
2019-04-27T13:35:27.598Z,0.60
2019-04-27T13:37:56.153Z,0.70
2019-04-27T13:40:25.949Z,0.60
2019-04-27T13:43:12.730Z,0.67
2019-04-27T13:45:55.124Z,0.57
2019-04-27T13:48:26.087Z,0.80
2019-04-27T13:51:03.167Z,0.67
2019-04-27T13:53:31.578Z,1.00
2019-04-27T13:56:01.628Z,1.00
2019-04-27T13:58:30.032Z,0.77
2019-04-27T14:00:58.435Z,0.90
2019-04-27T14:03:26.858Z,0.80
2019-04-27T14:05:56.901Z,1.07
2019-04-27T14:08:25.418Z,1.53
2019-04-27T14:10:53.826Z,1.63
2019-04-27T14:13:22.254Z,1.40
2019-04-27T14:15:50.830Z,1.60
2019-04-27T14:18:19.226Z,1.30
2019-04-27T14:20:48.675Z,1.40
2019-04-27T14:26:00.450Z,1.60
2019-04-27T14:28:29.069Z,1.50
2019-04-27T14:30:59.051Z,1.83
2019-04-27T14:33:28.390Z,1.40
2019-04-27T14:35:56.977Z,1.60
2019-04-27T14:38:25.411Z,1.60
2019-04-27T14:40:53.805Z,1.87
2019-04-27T14:43:22.218Z,1.30
2019-04-27T14:45:50.629Z,1.10
2019-04-27T14:48:19.062Z,1.50
2019-04-27T14:50:48.506Z,1.10
2019-04-27T14:53:17.198Z,1.27
2019-04-27T14:55:45.599Z,1.10
2019-04-27T14:58:14.006Z,1.33
2019-04-27T15:00:42.509Z,1.40
2019-04-27T15:03:10.939Z,1.10
2019-04-27T15:05:39.349Z,1.60
2019-04-27T15:08:09.697Z,1.53
2019-04-27T15:10:38.052Z,1.60
2019-04-27T15:13:08.283Z,1.80
2019-04-27T15:15:37.287Z,1.97
2019-04-27T15:18:05.954Z,1.60
2019-04-27T15:20:40.997Z,1.50
2019-04-27T15:23:10.165Z,1.60
2019-04-27T15:25:43.615Z,1.87
2019-04-27T15:28:12.117Z,1.20
2019-04-27T15:30:48.140Z,1.80
2019-04-27T15:33:18.192Z,2.67
2019-04-27T15:35:48.736Z,1.60
2019-04-27T15:38:18.850Z,2.40
2019-04-27T15:41:03.810Z,1.23
2019-04-27T15:43:33.862Z,1.53
2019-04-27T15:46:02.280Z,1.43
2019-04-27T15:48:33.977Z,1.20
2019-04-27T15:51:03.350Z,1.30
2019-04-27T15:53:30.953Z,1.20
2019-04-27T15:56:01.787Z,1.47
2019-04-27T15:58:29.597Z,1.30
2019-04-27T16:01:02.464Z,1.27
2019-04-27T16:03:31.324Z,1.53
2019-04-27T16:05:58.922Z,1.20
2019-04-27T16:08:28.818Z,1.50
2019-04-27T16:10:58.836Z,1.60
2019-04-27T16:13:32.944Z,1.43
2019-04-27T16:15:58.403Z,2.53
2019-04-27T16:18:31.037Z,1.70
2019-04-27T16:20:58.622Z,1.40
2019-04-27T16:23:28.217Z,0.97
2019-04-27T16:25:58.246Z,0.60
2019-04-27T16:28:27.118Z,0.70
2019-04-27T16:30:55.588Z,0.53
2019-04-27T16:33:24.005Z,0.50
2019-04-27T16:35:53.196Z,0.87
2019-04-27T16:38:26.741Z,0.47
2019-04-27T16:40:58.629Z,0.87
2019-04-27T16:43:30.025Z,0.70
2019-04-27T16:45:57.966Z,0.93
2019-04-27T16:48:28.068Z,1.37
2019-04-27T16:50:58.824Z,1.60
2019-04-27T16:53:25.358Z,1.30
2019-04-27T16:56:01.642Z,0.80
2019-04-27T16:58:25.690Z,0.80
2019-04-27T17:00:54.166Z,0.80
2019-04-27T17:03:22.667Z,0.80
2019-04-27T17:05:51.414Z,1.20
2019-04-27T17:08:22.401Z,1.20
2019-04-27T17:10:49.934Z,1.00
2019-04-27T17:13:18.899Z,1.30
2019-04-27T17:15:55.160Z,1.20
2019-04-27T17:18:38.567Z,2.10
2019-04-27T17:21:18.445Z,2.50
2019-04-27T17:23:38.770Z,2.20
2019-04-27T17:26:20.636Z,1.60
2019-04-27T17:28:39.317Z,1.03
2019-04-27T17:31:08.765Z,1.20
2019-04-27T17:33:39.896Z,1.00
2019-04-27T17:36:12.194Z,1.10
2019-04-27T17:38:42.538Z,1.67
2019-04-27T17:41:12.589Z,1.50
2019-04-27T17:43:41.498Z,2.13
2019-04-27T17:46:11.569Z,3.93
2019-04-27T17:48:40.269Z,3.20
2019-04-27T17:51:09.032Z,3.97
2019-04-27T17:53:37.734Z,2.93
2019-04-27T17:56:08.385Z,2.60
2019-04-27T17:58:39.651Z,2.10
2019-04-27T18:01:08.492Z,1.63
2019-04-27T18:03:38.707Z,2.10
2019-04-27T18:06:08.672Z,2.90
2019-04-27T18:08:40.017Z,1.97
2019-04-27T18:11:08.788Z,2.47
2019-04-27T18:13:38.851Z,2.77
2019-04-27T18:16:09.098Z,2.70
2019-04-27T18:18:40.420Z,2.50
2019-04-27T18:21:09.640Z,2.50
2019-04-27T18:23:39.709Z,2.90
2019-04-27T18:26:21.780Z,2.60
2019-04-27T18:28:53.875Z,2.87
2019-04-27T18:31:22.202Z,2.23
2019-04-27T18:33:50.606Z,2.87
2019-04-27T18:36:19.014Z,2.10
2019-04-27T18:38:47.452Z,2.23
2019-04-27T18:41:15.870Z,2.40
2019-04-27T18:43:50.667Z,2.87
2019-04-27T18:46:14.868Z,2.67
2019-04-27T18:48:50.281Z,2.30
2019-04-27T18:51:38.390Z,2.57
2019-04-27T18:54:08.140Z,2.50
2019-04-27T18:56:38.458Z,2.60
2019-04-27T18:59:08.409Z,2.40
2019-04-27T19:01:37.339Z,2.30
2019-04-27T19:04:05.826Z,2.53
2019-04-27T19:06:34.266Z,2.93
2019-04-27T19:09:02.680Z,2.40
2019-04-27T19:11:31.074Z,2.33
2019-04-27T19:13:59.487Z,2.47
2019-04-27T19:16:29.233Z,2.57
2019-04-27T19:18:58.433Z,5.23
2019-04-27T19:21:28.811Z,6.10
2019-04-27T19:23:58.453Z,4.47
2019-04-27T19:26:28.983Z,3.90
2019-04-27T19:28:59.138Z,2.70
2019-04-27T19:31:29.202Z,2.80
2019-04-27T19:33:57.596Z,4.33
2019-04-27T19:36:26.001Z,3.67
2019-04-27T19:38:54.403Z,3.03
2019-04-27T19:41:22.814Z,3.20
2019-04-27T19:43:51.210Z,3.30
2019-04-27T19:46:20.138Z,3.30
2019-04-27T19:48:49.979Z,3.40
2019-04-27T19:51:18.751Z,3.93
2019-04-27T19:53:47.149Z,3.73
2019-04-27T19:56:15.560Z,3.27
2019-04-27T19:58:45.605Z,3.33
2019-04-27T20:01:16.003Z,2.40
2019-04-27T20:04:04.258Z,2.67
2019-04-27T20:06:32.682Z,7.33
2019-04-27T20:09:19.251Z,12.67
2019-04-27T20:11:47.678Z,7.03
2019-04-27T20:14:16.158Z,4.40
2019-04-27T20:16:44.570Z,4.33
2019-04-27T20:19:12.974Z,4.57
2019-04-27T20:21:41.385Z,3.73
2019-04-27T20:24:11.679Z,3.50
2019-04-27T20:26:40.202Z,3.80
2019-04-27T20:29:08.922Z,3.80
2019-04-27T20:31:37.337Z,4.40
2019-04-27T20:34:05.755Z,3.67
2019-04-27T20:36:34.394Z,2.83
2019-04-27T20:39:05.690Z,3.23
2019-04-27T20:41:32.934Z,2.30
2019-04-27T20:44:02.332Z,2.07
2019-04-27T20:46:31.168Z,2.10
2019-04-27T20:49:01.345Z,1.87
2019-04-27T20:51:50.984Z,2.10
2019-04-27T20:54:21.481Z,1.60
2019-04-27T20:56:51.557Z,1.30
2019-04-27T20:59:21.933Z,1.20
2019-04-27T21:01:50.174Z,1.40
2019-04-27T21:04:20.981Z,1.40
2019-04-27T21:07:02.970Z,1.37
2019-04-27T21:09:32.347Z,1.37
2019-04-27T21:12:00.852Z,1.30
2019-04-27T21:14:29.344Z,1.60
2019-04-27T21:16:57.782Z,1.33
2019-04-27T21:19:26.377Z,1.43
2019-04-27T21:21:54.802Z,1.70
2019-04-27T21:24:24.636Z,1.40
2019-04-27T21:26:53.337Z,1.60
2019-04-27T21:29:21.733Z,1.90
2019-04-27T21:31:51.860Z,1.50
2019-04-27T21:34:20.434Z,1.40
2019-04-27T21:36:48.821Z,1.47
2019-04-27T21:39:17.237Z,1.60
2019-04-27T21:41:45.637Z,1.40
2019-04-27T21:44:14.047Z,1.57
2019-04-27T21:46:42.440Z,1.60
2019-04-27T21:49:12.676Z,1.57
2019-04-27T21:51:42.621Z,1.40
2019-04-27T21:54:12.665Z,1.50
2019-04-27T21:56:41.636Z,1.60
2019-04-27T21:59:11.109Z,2.13
2019-04-27T22:01:41.443Z,1.87
2019-04-27T22:04:11.433Z,1.97
2019-04-27T22:06:40.873Z,1.77
2019-04-27T22:09:12.677Z,1.93
2019-04-27T22:11:41.149Z,1.80
2019-04-27T22:14:11.545Z,2.13
2019-04-27T22:16:41.557Z,1.83
2019-04-27T22:19:11.924Z,1.80
2019-04-27T22:21:41.934Z,2.00
2019-04-27T22:24:14.869Z,2.00
2019-04-27T22:26:43.342Z,2.00
2019-04-27T22:29:12.154Z,2.47
2019-04-27T22:31:41.504Z,2.10
2019-04-27T22:34:10.854Z,1.90
2019-04-27T22:36:39.470Z,2.33
2019-04-27T22:39:09.622Z,2.27
2019-04-27T22:41:42.462Z,1.83
2019-04-27T22:44:21.562Z,1.90
2019-04-27T22:46:51.718Z,2.13
2019-04-27T22:49:21.111Z,2.27
2019-04-27T22:51:51.161Z,2.20
2019-04-27T22:54:21.639Z,2.17
2019-04-27T22:56:51.578Z,2.13
2019-04-27T22:59:24.678Z,1.87
2019-04-27T23:01:54.715Z,1.70
2019-04-27T23:04:24.758Z,2.03
2019-04-27T23:06:53.167Z,1.70
2019-04-27T23:09:21.904Z,1.90
2019-04-27T23:11:51.631Z,2.17
2019-04-27T23:14:21.207Z,2.10
2019-04-27T23:16:51.365Z,2.67
2019-04-27T23:19:21.029Z,2.40
2019-04-27T23:21:52.853Z,2.50
2019-04-27T23:24:20.857Z,2.33
2019-04-27T23:26:49.368Z,2.73
2019-04-27T23:29:17.769Z,2.93
2019-04-27T23:31:47.816Z,3.03
2019-04-27T23:34:16.450Z,3.07
2019-04-27T23:36:44.902Z,3.63
2019-04-27T23:39:13.470Z,3.43
2019-04-27T23:41:41.873Z,3.50
2019-04-27T23:44:10.269Z,3.07
2019-04-27T23:46:38.676Z,3.97
2019-04-27T23:49:07.072Z,2.90
2019-04-27T23:51:43.301Z,3.77
2019-04-27T23:54:11.699Z,3.50
2019-04-27T23:56:41.915Z,3.47
2019-04-27T23:59:10.239Z,3.20
